Time;durP1;ratioP1;P1;durP2;ratioP2;P2;SDS_P1;SDS_P2;PMS_P1;PMS_P2;Temp;Humidity;BMP_temperature;BMP_pressure;BME280_temperature;BME280_humidity;BME280_pressure;Samples;Min_cycle;Max_cycle;Signal;HPM_P1;HPM_P2
2022/11/22 00:01:47;;;;;;;;;;;3.70;99.90;;;;;;5066610;28;19984;-67
2022/11/22 00:04:14;;;;;;;;;;;3.70;99.90;;;;;;5066484;28;20144;-67
2022/11/22 00:06:41;;;;;;;;;;;3.70;99.90;;;;;;5065844;28;19984;-68
2022/11/22 00:09:07;;;;;;;;;;;3.60;99.90;;;;;;5066488;28;19924;-67
2022/11/22 00:11:34;;;;;;;;;;;3.70;99.90;;;;;;5066445;28;19984;-67
2022/11/22 00:14:01;;;;;;;;;;;3.60;99.90;;;;;;5066184;28;19987;-67
2022/11/22 00:16:27;;;;;;;;;;;3.60;99.90;;;;;;5065877;28;19987;-67
2022/11/22 00:18:55;;;;;;;;;;;3.70;99.90;;;;;;5066172;28;20000;-67
2022/11/22 00:21:22;;;;;;;;;;;3.60;99.90;;;;;;5066219;28;19921;-67
2022/11/22 00:23:48;;;;;;;;;;;3.70;99.90;;;;;;5046057;28;19921;-67
2022/11/22 00:26:15;;;;;;;;;;;3.60;99.90;;;;;;5045612;28;19984;-66
2022/11/22 00:28:42;;;;;;;;;;;3.70;99.90;;;;;;5046086;28;19984;-68
2022/11/22 00:31:08;;;;;;;;;;;3.60;99.90;;;;;;5045798;28;20141;-67
2022/11/22 00:33:35;;;;;;;;;;;3.60;99.90;;;;;;5045327;28;19984;-68
2022/11/22 00:36:03;;;;;;;;;;;3.70;99.90;;;;;;5045128;28;19995;-67
2022/11/22 00:38:30;;;;;;;;;;;3.70;99.90;;;;;;5045442;28;19924;-67
2022/11/22 00:40:56;;;;;;;;;;;3.70;99.90;;;;;;5046435;28;19984;-67
2022/11/22 00:43:24;;;;;;;;;;;3.70;99.90;;;;;;5055078;28;20171;-67
2022/11/22 00:45:51;;;;;;;;;;;3.70;99.90;;;;;;5065422;28;19997;-67
2022/11/22 00:48:17;;;;;;;;;;;3.70;99.90;;;;;;5065775;28;19956;-67
2022/11/22 00:50:44;;;;;;;;;;;3.70;99.90;;;;;;5065719;28;20164;-67
2022/11/22 00:53:12;;;;;;;;;;;3.70;99.90;;;;;;5065678;28;19983;-67
2022/11/22 00:55:38;;;;;;;;;;;3.70;99.90;;;;;;5064782;28;19921;-67
2022/11/22 00:58:05;;;;;;;;;;;3.60;99.90;;;;;;5065198;28;19987;-67
2022/11/22 01:00:32;;;;;;;;;;;3.60;99.90;;;;;;5065518;28;19992;-67
2022/11/22 01:02:58;;;;;;;;;;;3.60;99.90;;;;;;5065439;28;19928;-67
2022/11/22 01:05:25;;;;;;;;;;;3.60;99.90;;;;;;5065082;28;19956;-68
2022/11/22 01:07:51;;;;;;;;;;;3.60;99.90;;;;;;5065474;28;19927;-67
2022/11/22 01:10:19;;;;;;;;;;;3.60;99.90;;;;;;5065110;28;19987;-67
2022/11/22 01:12:46;;;;;;;;;;;3.60;99.90;;;;;;5065367;28;19987;-67
2022/11/22 01:15:13;;;;;;;;;;;3.70;99.90;;;;;;5064505;28;19983;-67
2022/11/22 01:17:39;;;;;;;;;;;3.70;99.90;;;;;;5065187;28;19921;-67
2022/11/22 01:20:07;;;;;;;;;;;3.70;99.90;;;;;;5065149;28;19987;-67
2022/11/22 01:22:34;;;;;;;;;;;3.70;99.90;;;;;;5065056;28;19988;-67
2022/11/22 01:25:00;;;;;;;;;;;3.70;99.90;;;;;;5064750;28;19984;-67
2022/11/22 01:27:28;;;;;;;;;;;3.70;99.90;;;;;;5065285;28;20171;-68
2022/11/22 01:29:55;;;;;;;;;;;3.70;99.90;;;;;;5064626;28;19989;-67
2022/11/22 01:32:21;;;;;;;;;;;3.70;99.90;;;;;;5064908;28;19987;-67
2022/11/22 01:34:48;;;;;;;;;;;3.70;99.90;;;;;;5064188;28;19952;-68
2022/11/22 01:37:15;;;;;;;;;;;3.70;99.90;;;;;;5064502;28;19959;-68
2022/11/22 01:39:41;;;;;;;;;;;3.70;99.90;;;;;;5064801;28;19920;-66
2022/11/22 01:42:10;;;;;;;;;;;3.70;99.90;;;;;;5063626;28;20250;-67
2022/11/22 01:44:40;;;;;;;;;;;3.70;99.90;;;;;;5064308;28;20159;-68
2022/11/22 01:47:10;;;;;;;;;;;3.70;99.90;;;;;;5064625;28;20163;-67
2022/11/22 01:49:39;;;;;;;;;;;3.70;99.90;;;;;;5064106;28;19971;-67
2022/11/22 01:52:06;;;;;;;;;;;3.70;99.90;;;;;;5064064;28;19956;-67
2022/11/22 01:54:35;;;;;;;;;;;3.80;99.90;;;;;;5064148;28;19980;-68
2022/11/22 01:57:04;;;;;;;;;;;3.70;99.90;;;;;;5064286;28;19921;-67
2022/11/22 01:59:33;;;;;;;;;;;3.70;99.90;;;;;;5064499;28;19952;-68
2022/11/22 02:02:01;;;;;;;;;;;3.70;99.90;;;;;;5064178;28;19963;-67
2022/11/22 02:04:29;;;;;;;;;;;3.70;99.90;;;;;;5064009;28;19956;-66
2022/11/22 02:06:59;;;;;;;;;;;3.70;99.90;;;;;;5063838;28;19988;-68
2022/11/22 02:09:26;;;;;;;;;;;3.70;99.90;;;;;;5063886;28;20259;-67
2022/11/22 02:11:53;;;;;;;;;;;3.70;99.90;;;;;;5064154;28;19975;-67
2022/11/22 02:14:21;;;;;;;;;;;3.70;99.90;;;;;;5063835;28;19989;-67
2022/11/22 02:16:48;;;;;;;;;;;3.70;99.90;;;;;;5063445;28;20188;-68
2022/11/22 02:19:19;;;;;;;;;;;3.70;99.90;;;;;;5062575;28;20256;-68
2022/11/22 02:21:48;;;;;;;;;;;3.70;99.90;;;;;;5063832;28;19920;-68
2022/11/22 02:24:17;;;;;;;;;;;3.70;99.90;;;;;;5063941;28;20279;-68
2022/11/22 02:26:45;;;;;;;;;;;3.70;99.90;;;;;;5063252;28;20268;-67
2022/11/22 02:29:12;;;;;;;;;;;3.70;99.90;;;;;;5063678;28;19996;-67
2022/11/22 02:31:41;;;;;;;;;;;3.70;99.90;;;;;;5063802;28;19921;-67
2022/11/22 02:34:08;;;;;;;;;;;3.70;99.90;;;;;;5063787;28;19936;-68
2022/11/22 02:36:36;;;;;;;;;;;3.70;99.90;;;;;;5063481;28;19948;-68
2022/11/22 02:39:03;;;;;;;;;;;3.70;99.90;;;;;;5063656;28;19959;-68
2022/11/22 02:41:29;;;;;;;;;;;3.70;99.90;;;;;;5063753;28;20003;-67
2022/11/22 02:44:00;;;;;;;;;;;3.70;99.90;;;;;;5062998;28;19971;-68
2022/11/22 02:46:26;;;;;;;;;;;3.60;99.90;;;;;;5063387;28;19959;-67
2022/11/22 02:48:53;;;;;;;;;;;3.70;99.90;;;;;;5063566;28;20172;-67
2022/11/22 02:51:20;;;;;;;;;;;3.70;99.90;;;;;;5063247;28;20208;-67
2022/11/22 02:53:48;;;;;;;;;;;3.70;99.90;;;;;;5063533;28;19963;-67
2022/11/22 02:56:14;;;;;;;;;;;3.70;99.90;;;;;;5065937;28;19967;-67
2022/11/22 02:58:41;;;;;;;;;;;3.70;99.90;;;;;;5067733;28;19948;-67
2022/11/22 03:01:09;;;;;;;;;;;3.70;99.90;;;;;;5067599;28;19948;-67
2022/11/22 03:03:36;;;;;;;;;;;3.70;99.90;;;;;;5067216;28;19980;-67
2022/11/22 03:06:03;;;;;;;;;;;3.70;99.90;;;;;;5067251;28;19979;-67
2022/11/22 03:08:30;;;;;;;;;;;3.70;99.90;;;;;;5067580;28;19984;-67
2022/11/22 03:10:57;;;;;;;;;;;3.70;99.90;;;;;;5067576;28;19983;-67
2022/11/22 03:13:23;;;;;;;;;;;3.80;99.90;;;;;;5067549;28;19984;-67
2022/11/22 03:15:50;;;;;;;;;;;3.80;99.90;;;;;;5066876;28;19952;-67
2022/11/22 03:18:27;;;;;;;;;;;3.80;99.90;;;;;;5066422;28;20231;-67
2022/11/22 03:20:53;;;;;;;;;;;3.80;99.90;;;;;;5067022;28;19984;-68
2022/11/22 03:23:20;;;;;;;;;;;3.90;99.90;;;;;;5067433;28;19963;-67
2022/11/22 03:25:47;;;;;;;;;;;3.90;99.90;;;;;;5066913;28;20206;-67
2022/11/22 03:28:13;;;;;;;;;;;3.90;99.90;;;;;;5066982;28;19956;-67
2022/11/22 03:30:41;;;;;;;;;;;4.00;99.90;;;;;;5067043;28;19988;-67
2022/11/22 03:33:07;;;;;;;;;;;3.90;99.90;;;;;;5067081;28;19927;-67
2022/11/22 03:35:35;;;;;;;;;;;4.00;99.90;;;;;;5066702;28;19963;-67
2022/11/22 03:38:02;;;;;;;;;;;4.00;99.90;;;;;;5066566;28;19967;-67
2022/11/22 03:40:29;;;;;;;;;;;4.00;99.90;;;;;;5066979;28;19956;-67
2022/11/22 03:42:58;;;;;;;;;;;4.00;99.90;;;;;;5066893;28;19988;-67
2022/11/22 03:45:24;;;;;;;;;;;4.00;99.90;;;;;;5066452;28;19996;-67
2022/11/22 03:47:51;;;;;;;;;;;4.10;99.90;;;;;;5066468;28;20256;-67
2022/11/22 03:50:18;;;;;;;;;;;4.10;99.90;;;;;;5066693;28;19948;-67
2022/11/22 03:52:46;;;;;;;;;;;4.10;99.90;;;;;;5066333;28;19988;-67
2022/11/22 03:55:12;;;;;;;;;;;4.10;99.90;;;;;;5065995;28;19921;-68
2022/11/22 03:57:42;;;;;;;;;;;4.10;99.90;;;;;;5066300;28;19987;-67
2022/11/22 04:00:09;;;;;;;;;;;4.10;99.90;;;;;;5066669;28;19921;-67
2022/11/22 04:02:36;;;;;;;;;;;4.10;99.90;;;;;;5066523;28;19920;-67
2022/11/22 04:05:03;;;;;;;;;;;4.10;99.90;;;;;;5066132;28;19988;-67
2022/11/22 04:07:29;;;;;;;;;;;4.10;99.90;;;;;;5066369;28;19952;-67
2022/11/22 04:09:57;;;;;;;;;;;4.10;99.90;;;;;;5066438;28;20145;-67
2022/11/22 04:12:24;;;;;;;;;;;4.10;99.90;;;;;;5066376;28;19988;-67
2022/11/22 04:15:08;;;;;;;;;;;4.10;99.90;;;;;;5065913;28;19952;-68
2022/11/22 04:17:42;;;;;;;;;;;4.10;99.90;;;;;;5066225;28;19966;-67
2022/11/22 04:22:55;;;;;;;;;;;4.10;99.90;;;;;;5066032;28;19924;-67
2022/11/22 04:25:26;;;;;;;;;;;4.00;99.90;;;;;;5064571;28;19960;-67
2022/11/22 04:27:52;;;;;;;;;;;4.00;99.90;;;;;;5065866;28;20247;-67
2022/11/22 04:30:19;;;;;;;;;;;4.00;99.90;;;;;;5065905;28;19956;-67
2022/11/22 04:32:45;;;;;;;;;;;4.00;99.90;;;;;;5065985;28;19988;-67
2022/11/22 04:35:12;;;;;;;;;;;4.00;99.90;;;;;;5065606;28;19921;-67
2022/11/22 04:37:39;;;;;;;;;;;4.10;99.90;;;;;;5065896;28;19956;-67
2022/11/22 04:40:06;;;;;;;;;;;4.00;99.90;;;;;;5065807;28;19979;-67
2022/11/22 04:45:18;;;;;;;;;;;4.10;99.90;;;;;;5065258;28;19928;-68
2022/11/22 04:48:00;;;;;;;;;;;4.10;99.90;;;;;;5065667;28;19996;-67
2022/11/22 04:53:11;;;;;;;;;;;4.10;99.90;;;;;;5065554;28;20168;-67
2022/11/22 04:55:37;;;;;;;;;;;4.20;99.90;;;;;;5065015;28;19956;-67
2022/11/22 04:58:05;;;;;;;;;;;4.20;99.90;;;;;;5065476;28;19991;-67
2022/11/22 05:00:32;;;;;;;;;;;4.20;99.90;;;;;;5065015;28;19927;-67
2022/11/22 05:02:59;;;;;;;;;;;4.20;99.90;;;;;;5065478;28;19920;-68
2022/11/22 05:05:26;;;;;;;;;;;4.20;99.90;;;;;;5065002;28;19948;-67
2022/11/22 05:07:52;;;;;;;;;;;4.20;99.90;;;;;;5065289;28;19990;-67
2022/11/22 05:10:19;;;;;;;;;;;4.20;99.90;;;;;;5065139;28;19920;-67
2022/11/22 05:12:46;;;;;;;;;;;4.30;99.90;;;;;;5065090;28;19987;-67
2022/11/22 05:15:14;;;;;;;;;;;4.30;99.90;;;;;;5064742;28;19948;-67
2022/11/22 05:17:41;;;;;;;;;;;4.30;99.90;;;;;;5063955;28;20165;-68
2022/11/22 05:20:09;;;;;;;;;;;4.40;99.90;;;;;;5064968;28;20008;-68
2022/11/22 05:25:20;;;;;;;;;;;4.40;99.90;;;;;;5064385;28;20246;-67
2022/11/22 05:27:47;;;;;;;;;;;4.40;99.90;;;;;;5064746;28;19967;-68
2022/11/22 05:30:15;;;;;;;;;;;4.40;99.90;;;;;;5064751;28;20169;-68
2022/11/22 05:32:41;;;;;;;;;;;4.30;99.90;;;;;;5064463;28;20003;-68
2022/11/22 05:35:08;;;;;;;;;;;4.30;99.90;;;;;;5064389;28;19956;-68
2022/11/22 05:37:35;;;;;;;;;;;4.30;99.90;;;;;;5064596;28;19964;-68
2022/11/22 05:40:01;;;;;;;;;;;4.40;99.90;;;;;;5064717;28;20163;-68
2022/11/22 05:42:28;;;;;;;;;;;4.30;99.90;;;;;;5064354;28;20213;-68
2022/11/22 05:44:55;;;;;;;;;;;4.40;99.90;;;;;;5064028;28;20224;-69
2022/11/22 05:47:23;;;;;;;;;;;4.30;99.90;;;;;;5064605;28;19983;-68
2022/11/22 05:49:49;;;;;;;;;;;4.30;99.90;;;;;;5064585;28;19980;-68
2022/11/22 05:52:16;;;;;;;;;;;4.30;99.90;;;;;;5064176;28;20208;-68
2022/11/22 05:54:42;;;;;;;;;;;4.30;99.90;;;;;;5064106;28;19989;-67
2022/11/22 05:57:09;;;;;;;;;;;4.20;99.90;;;;;;5064311;28;20008;-68
2022/11/22 05:59:36;;;;;;;;;;;4.20;99.90;;;;;;5064119;28;20266;-68
2022/11/22 06:02:02;;;;;;;;;;;4.20;99.90;;;;;;5064214;28;19984;-68
2022/11/22 06:04:30;;;;;;;;;;;4.10;99.90;;;;;;5064236;28;20161;-68
2022/11/22 06:06:57;;;;;;;;;;;4.10;99.90;;;;;;5064093;28;20113;-68
2022/11/22 06:09:23;;;;;;;;;;;4.00;99.90;;;;;;5064151;28;19984;-68
2022/11/22 06:11:50;;;;;;;;;;;4.00;99.90;;;;;;5064133;28;19987;-67
2022/11/22 06:14:17;;;;;;;;;;;4.00;99.90;;;;;;5063863;28;19992;-68
2022/11/22 06:16:43;;;;;;;;;;;4.00;99.90;;;;;;5063544;28;19928;-68
2022/11/22 06:19:11;;;;;;;;;;;3.90;99.90;;;;;;5063967;28;19984;-69
2022/11/22 06:21:39;;;;;;;;;;;3.90;99.90;;;;;;5063985;28;19962;-67
2022/11/22 06:24:06;;;;;;;;;;;3.90;99.90;;;;;;5063991;28;20155;-70
2022/11/22 06:26:33;;;;;;;;;;;3.80;99.90;;;;;;5063377;28;20267;-68
2022/11/22 06:29:00;;;;;;;;;;;3.80;99.90;;;;;;5063940;28;19983;-69
2022/11/22 06:31:27;;;;;;;;;;;3.80;99.90;;;;;;5063195;28;20259;-68
2022/11/22 06:33:54;;;;;;;;;;;3.80;99.90;;;;;;5063523;28;19964;-69
2022/11/22 06:36:23;;;;;;;;;;;3.80;99.90;;;;;;5062571;28;20256;-68
2022/11/22 06:38:51;;;;;;;;;;;3.80;99.90;;;;;;5063564;28;19999;-68
2022/11/22 06:41:19;;;;;;;;;;;3.80;99.90;;;;;;5063937;28;20047;-68
2022/11/22 06:43:46;;;;;;;;;;;3.80;99.90;;;;;;5063957;28;20017;-68
2022/11/22 06:46:14;;;;;;;;;;;3.80;99.90;;;;;;5063518;28;19984;-69
2022/11/22 06:48:41;;;;;;;;;;;3.80;99.90;;;;;;5063794;28;19948;-68
2022/11/22 06:51:10;;;;;;;;;;;3.90;99.90;;;;;;5063542;28;19988;-68
2022/11/22 06:53:37;;;;;;;;;;;3.90;99.90;;;;;;5063775;28;19963;-69
2022/11/22 06:56:06;;;;;;;;;;;3.90;99.90;;;;;;5063348;28;19952;-68
2022/11/22 06:58:33;;;;;;;;;;;3.90;99.90;;;;;;5062552;28;19987;-68
2022/11/22 07:01:00;;;;;;;;;;;4.00;99.90;;;;;;5063401;28;19992;-68
2022/11/22 07:03:27;;;;;;;;;;;4.00;99.90;;;;;;5063718;28;19992;-69
2022/11/22 07:05:54;;;;;;;;;;;4.00;99.90;;;;;;5063238;28;19987;-69
2022/11/22 07:08:21;;;;;;;;;;;4.00;99.90;;;;;;5063694;28;19952;-69
2022/11/22 07:10:47;;;;;;;;;;;4.10;99.90;;;;;;5063232;28;19987;-69
2022/11/22 07:13:16;;;;;;;;;;;4.10;99.90;;;;;;5063595;28;19999;-68
2022/11/22 07:15:42;;;;;;;;;;;4.10;99.90;;;;;;5062978;28;19977;-68
2022/11/22 07:18:09;;;;;;;;;;;4.10;99.90;;;;;;5063860;28;19992;-68
2022/11/22 07:20:36;;;;;;;;;;;4.20;99.90;;;;;;5063555;28;20040;-68
2022/11/22 07:23:02;;;;;;;;;;;4.10;99.90;;;;;;5063421;28;20220;-68
2022/11/22 07:25:29;;;;;;;;;;;4.10;99.90;;;;;;5063114;28;19988;-68
2022/11/22 07:27:55;;;;;;;;;;;4.10;99.90;;;;;;5063567;28;19920;-68
2022/11/22 07:30:23;;;;;;;;;;;4.10;99.90;;;;;;5063520;28;20171;-68
2022/11/22 07:32:50;;;;;;;;;;;4.20;99.90;;;;;;5063314;28;20220;-68
2022/11/22 07:35:17;;;;;;;;;;;4.30;99.90;;;;;;5063111;28;20087;-68
2022/11/22 07:37:43;;;;;;;;;;;4.40;99.90;;;;;;5063072;28;20271;-70
2022/11/22 07:40:11;;;;;;;;;;;4.50;99.90;;;;;;5060091;28;20039;-69
2022/11/22 07:42:37;;;;;;;;;;;4.50;99.90;;;;;;5064710;28;19952;-68
2022/11/22 07:45:04;;;;;;;;;;;4.60;99.90;;;;;;5066254;28;19967;-69
2022/11/22 07:47:33;;;;;;;;;;;4.60;99.90;;;;;;5067152;28;19963;-68
2022/11/22 07:49:59;;;;;;;;;;;4.70;99.90;;;;;;5066706;28;19956;-68
2022/11/22 07:52:26;;;;;;;;;;;4.80;99.90;;;;;;5067007;28;19980;-69
2022/11/22 07:54:52;;;;;;;;;;;4.90;99.90;;;;;;5064954;28;19963;-69
2022/11/22 07:57:19;;;;;;;;;;;4.90;99.90;;;;;;5063005;28;19984;-68
2022/11/22 07:59:46;;;;;;;;;;;5.00;99.90;;;;;;5056347;28;20413;-69
2022/11/22 08:02:12;;;;;;;;;;;5.10;99.90;;;;;;5066867;28;19987;-67
2022/11/22 08:04:40;;;;;;;;;;;5.10;99.90;;;;;;5066196;28;20169;-68
2022/11/22 08:07:08;;;;;;;;;;;5.20;99.90;;;;;;5066290;28;20263;-68
2022/11/22 08:09:34;;;;;;;;;;;5.20;99.90;;;;;;5066101;28;19946;-68
2022/11/22 08:12:01;;;;;;;;;;;5.20;99.90;;;;;;5066457;28;19975;-68
2022/11/22 08:14:28;;;;;;;;;;;5.30;99.90;;;;;;5061979;28;19989;-67
2022/11/22 08:16:54;;;;;;;;;;;5.30;99.90;;;;;;5053971;28;19981;-68
2022/11/22 08:19:21;;;;;;;;;;;5.30;99.90;;;;;;5066336;28;19984;-68
2022/11/22 08:21:49;;;;;;;;;;;5.40;99.90;;;;;;5066309;28;19963;-68
2022/11/22 08:24:16;;;;;;;;;;;5.40;99.90;;;;;;5066048;28;19964;-68
2022/11/22 08:26:43;;;;;;;;;;;5.50;99.90;;;;;;5065460;28;20005;-68
2022/11/22 08:29:10;;;;;;;;;;;5.50;99.90;;;;;;5066019;28;20172;-68
2022/11/22 08:31:37;;;;;;;;;;;5.60;99.90;;;;;;5066222;28;20162;-68
2022/11/22 08:34:04;;;;;;;;;;;5.70;99.90;;;;;;5066215;28;19921;-68
2022/11/22 08:36:31;;;;;;;;;;;5.70;99.90;;;;;;5065962;28;19988;-68
2022/11/22 08:38:59;;;;;;;;;;;5.70;99.90;;;;;;5066004;28;19960;-68
2022/11/22 08:41:26;;;;;;;;;;;5.80;99.90;;;;;;5089374;23;19997;-71
2022/11/22 08:43:52;;;;;;;;;;;5.80;99.90;;;;;;5045753;28;19921;-71
2022/11/22 08:46:20;;;;;;;;;;;5.80;99.90;;;;;;5044696;28;20282;-71
2022/11/22 08:48:47;;;;;;;;;;;5.90;99.90;;;;;;5045905;28;19963;-71
2022/11/22 08:51:14;;;;;;;;;;;5.90;99.90;;;;;;5045754;28;19984;-71
2022/11/22 08:53:41;;;;;;;;;;;5.90;99.90;;;;;;5044457;28;20278;-71
2022/11/22 08:56:10;;;;;;;;;;;6.00;99.90;;;;;;5045119;28;19956;-71
2022/11/22 08:58:37;;;;;;;;;;;6.00;99.90;;;;;;5045191;28;19991;-71
2022/11/22 09:01:05;;;;;;;;;;;6.00;99.90;;;;;;5044263;28;19983;-70
2022/11/22 09:03:33;;;;;;;;;;;6.00;99.90;;;;;;5044759;28;19944;-70
2022/11/22 09:06:00;;;;;;;;;;;6.10;99.90;;;;;;5044794;28;19921;-70
2022/11/22 09:08:27;;;;;;;;;;;6.10;99.90;;;;;;5045324;28;19928;-71
2022/11/22 09:10:53;;;;;;;;;;;6.20;99.90;;;;;;5028224;28;19984;-71
2022/11/22 09:13:21;;;;;;;;;;;6.10;99.90;;;;;;5025628;28;19968;-70
2022/11/22 09:15:48;;;;;;;;;;;6.20;99.90;;;;;;5025157;28;19957;-69
2022/11/22 09:18:14;;;;;;;;;;;6.20;99.90;;;;;;5027787;28;20156;-70
2022/11/22 09:20:41;;;;;;;;;;;6.20;99.90;;;;;;5030437;28;19985;-70
2022/11/22 09:23:08;;;;;;;;;;;6.20;99.90;;;;;;5025084;28;19964;-70
2022/11/22 09:25:35;;;;;;;;;;;6.20;99.90;;;;;;5024386;28;19952;-70
2022/11/22 09:28:04;;;;;;;;;;;6.20;99.90;;;;;;5025038;28;19984;-70
2022/11/22 09:30:32;;;;;;;;;;;6.30;99.90;;;;;;5025174;28;19957;-71
2022/11/22 09:32:59;;;;;;;;;;;6.30;99.90;;;;;;5024900;28;20008;-70
2022/11/22 09:35:25;;;;;;;;;;;6.30;99.90;;;;;;5040430;28;19980;-70
2022/11/22 09:37:52;;;;;;;;;;;6.40;99.90;;;;;;5044711;28;19963;-70
2022/11/22 09:40:18;;;;;;;;;;;6.40;99.90;;;;;;5044356;28;20141;-70
2022/11/22 09:43:02;;;;;;;;;;;6.50;99.90;;;;;;5044228;28;20228;-71
2022/11/22 09:45:38;;;;;;;;;;;6.50;99.90;;;;;;5044444;28;19984;-71
2022/11/22 09:48:09;;;;;;;;;;;6.60;99.90;;;;;;5044358;28;20239;-70
2022/11/22 09:50:40;;;;;;;;;;;6.70;99.90;;;;;;5044214;28;19964;-70
2022/11/22 09:53:10;;;;;;;;;;;6.70;99.90;;;;;;5044498;28;19952;-70
2022/11/22 09:55:39;;;;;;;;;;;6.80;99.90;;;;;;5043272;28;20421;-71
2022/11/22 09:58:10;;;;;;;;;;;6.90;99.90;;;;;;5044208;28;19927;-70
2022/11/22 10:00:38;;;;;;;;;;;7.00;99.90;;;;;;5044179;28;19921;-70
2022/11/22 10:03:08;;;;;;;;;;;7.10;99.90;;;;;;5044202;28;19956;-70
2022/11/22 10:05:38;;;;;;;;;;;7.20;99.90;;;;;;5043878;28;19921;-70
2022/11/22 10:08:11;;;;;;;;;;;7.20;99.90;;;;;;5026976;28;19985;-70
2022/11/22 10:10:39;;;;;;;;;;;7.20;99.90;;;;;;5036318;28;20000;-70
2022/11/22 10:13:11;;;;;;;;;;;7.30;99.90;;;;;;5043949;28;19988;-70
2022/11/22 10:15:46;;;;;;;;;;;7.30;99.90;;;;;;5043764;28;20180;-70
2022/11/22 10:18:16;;;;;;;;;;;7.40;99.90;;;;;;5040429;28;19980;-70
2022/11/22 10:20:43;;;;;;;;;;;7.30;99.90;;;;;;5024234;28;19960;-70
2022/11/22 10:23:15;;;;;;;;;;;7.30;99.90;;;;;;5024237;28;20157;-70
2022/11/22 10:25:46;;;;;;;;;;;7.30;99.90;;;;;;5023569;28;19953;-70
2022/11/22 10:28:16;;;;;;;;;;;7.30;99.90;;;;;;5023958;28;19984;-71
2022/11/22 10:30:48;;;;;;;;;;;7.30;99.90;;;;;;5023894;28;20235;-70
2022/11/22 10:33:17;;;;;;;;;;;7.30;99.90;;;;;;5023877;28;19921;-70
2022/11/22 10:35:51;;;;;;;;;;;7.20;99.90;;;;;;5023473;28;19922;-70
2022/11/22 10:38:34;;;;;;;;;;;7.10;99.90;;;;;;5023714;28;19988;-71
2022/11/22 10:41:05;;;;;;;;;;;7.10;99.90;;;;;;5023545;28;19984;-70
2022/11/22 10:43:37;;;;;;;;;;;7.10;99.90;;;;;;5038578;28;20007;-70
2022/11/22 10:46:08;;;;;;;;;;;7.10;99.90;;;;;;5043474;28;19921;-70
2022/11/22 10:48:37;;;;;;;;;;;7.10;99.90;;;;;;5043733;28;19959;-70
2022/11/22 10:51:09;;;;;;;;;;;7.10;99.90;;;;;;5043167;28;19988;-70
2022/11/22 10:53:44;;;;;;;;;;;7.10;99.90;;;;;;5043652;28;19960;-70
2022/11/22 10:56:14;;;;;;;;;;;7.20;99.90;;;;;;5043058;28;20288;-70
2022/11/22 10:58:47;;;;;;;;;;;7.20;99.90;;;;;;5043128;28;20008;-70
2022/11/22 11:01:18;;;;;;;;;;;7.20;99.90;;;;;;5043466;28;19988;-70
2022/11/22 11:03:46;;;;;;;;;;;7.20;99.90;;;;;;5043466;28;19952;-70
2022/11/22 11:06:14;;;;;;;;;;;7.20;99.90;;;;;;5043017;28;19921;-70
2022/11/22 11:08:43;;;;;;;;;;;7.20;99.90;;;;;;5043497;28;20101;-70
2022/11/22 11:11:10;;;;;;;;;;;7.30;99.90;;;;;;5043195;28;19988;-70
2022/11/22 11:13:39;;;;;;;;;;;7.30;99.90;;;;;;5043141;28;19952;-70
2022/11/22 11:16:08;;;;;;;;;;;7.30;99.90;;;;;;5043915;28;20013;-70
2022/11/22 11:18:40;;;;;;;;;;;7.30;99.90;;;;;;5047172;28;19921;-70
2022/11/22 11:21:07;;;;;;;;;;;7.40;99.90;;;;;;5046965;28;20260;-70
2022/11/22 11:23:33;;;;;;;;;;;7.40;99.90;;;;;;5047380;28;19921;-70
2022/11/22 11:26:18;;;;;;;;;;;7.50;99.90;;;;;;5046091;28;20022;-70
2022/11/22 11:28:45;;;;;;;;;;;7.60;99.90;;;;;;5046941;28;19921;-70
2022/11/22 11:31:12;;;;;;;;;;;7.60;99.90;;;;;;5046959;28;19921;-70
2022/11/22 11:33:41;;;;;;;;;;;7.70;99.90;;;;;;5047041;28;20120;-70
2022/11/22 11:36:10;;;;;;;;;;;7.80;99.90;;;;;;5046679;28;19928;-70
2022/11/22 11:38:37;;;;;;;;;;;7.90;99.90;;;;;;5046969;28;19921;-70
2022/11/22 11:41:17;;;;;;;;;;;7.90;99.90;;;;;;5046726;28;19996;-70
2022/11/22 11:43:45;;;;;;;;;;;7.90;99.90;;;;;;5046329;28;19921;-71
2022/11/22 11:46:15;;;;;;;;;;;7.90;99.90;;;;;;5046215;28;19993;-70
2022/11/22 11:48:43;;;;;;;;;;;7.80;99.90;;;;;;5048457;28;19956;-71
2022/11/22 11:51:14;;;;;;;;;;;7.80;99.90;;;;;;5047152;28;19952;-71
2022/11/22 11:53:42;;;;;;;;;;;7.80;99.90;;;;;;5047903;28;19924;-70
2022/11/22 11:56:19;;;;;;;;;;;7.70;99.90;;;;;;5046903;28;20268;-71
2022/11/22 11:58:49;;;;;;;;;;;7.70;99.90;;;;;;5046369;28;19948;-71
2022/11/22 12:01:17;;;;;;;;;;;7.70;99.90;;;;;;5045741;28;19952;-71
2022/11/22 12:03:51;;;;;;;;;;;7.70;99.90;;;;;;5032113;28;19928;-70
2022/11/22 12:06:18;;;;;;;;;;;7.70;99.90;;;;;;5025958;28;20251;-70
2022/11/22 12:08:44;;;;;;;;;;;7.70;99.90;;;;;;5027114;28;19988;-70
2022/11/22 12:11:13;;;;;;;;;;;7.60;99.90;;;;;;5045692;28;19985;-71
2022/11/22 12:13:41;;;;;;;;;;;7.60;99.90;;;;;;5046224;28;19988;-70
2022/11/22 12:16:12;;;;;;;;;;;7.60;99.90;;;;;;5045236;28;20299;-70
2022/11/22 12:18:41;;;;;;;;;;;7.60;99.90;;;;;;5045747;28;20262;-70
2022/11/22 12:21:16;;;;;;;;;;;7.60;99.90;;;;;;5046008;28;20303;-70
2022/11/22 12:23:47;;;;;;;;;;;7.60;99.90;;;;;;5045984;28;20231;-70
2022/11/22 12:26:14;;;;;;;;;;;7.50;99.90;;;;;;5040061;28;19988;-70
2022/11/22 12:28:41;;;;;;;;;;;7.40;99.90;;;;;;5024775;28;19957;-70
2022/11/22 12:31:12;;;;;;;;;;;7.50;99.90;;;;;;5026333;28;19959;-70
2022/11/22 12:33:40;;;;;;;;;;;7.50;99.90;;;;;;5025999;28;20287;-70
2022/11/22 12:36:10;;;;;;;;;;;7.40;99.90;;;;;;5026916;28;19988;-70
2022/11/22 12:38:39;;;;;;;;;;;7.40;99.90;;;;;;5045594;28;20287;-70
2022/11/22 12:41:09;;;;;;;;;;;7.40;99.90;;;;;;5045632;28;19988;-70
2022/11/22 12:43:37;;;;;;;;;;;7.50;99.90;;;;;;5045391;28;20243;-70
2022/11/22 12:46:05;;;;;;;;;;;7.40;99.90;;;;;;5045464;28;19992;-70
2022/11/22 12:48:33;;;;;;;;;;;7.40;99.90;;;;;;5045923;28;19955;-70
2022/11/22 12:51:03;;;;;;;;;;;7.50;99.90;;;;;;5045564;28;19988;-70
2022/11/22 12:53:30;;;;;;;;;;;7.50;99.90;;;;;;5045709;28;20199;-70
2022/11/22 12:56:00;;;;;;;;;;;7.50;99.90;;;;;;5045043;28;19988;-70
2022/11/22 12:58:30;;;;;;;;;;;7.50;99.90;;;;;;5045639;28;20165;-70
2022/11/22 13:01:03;;;;;;;;;;;7.50;99.90;;;;;;5045556;28;19961;-70
2022/11/22 13:03:31;;;;;;;;;;;7.50;99.90;;;;;;5045520;28;19988;-70
2022/11/22 13:05:58;;;;;;;;;;;7.40;99.90;;;;;;5044917;28;20291;-70
2022/11/22 13:08:28;;;;;;;;;;;7.40;99.90;;;;;;5045423;28;19948;-70
2022/11/22 13:10:56;;;;;;;;;;;7.40;99.90;;;;;;5045166;28;19944;-70
2022/11/22 13:13:27;;;;;;;;;;;7.40;99.90;;;;;;5045071;28;20228;-70
2022/11/22 13:15:55;;;;;;;;;;;7.20;99.90;;;;;;5044987;28;20151;-70
2022/11/22 13:18:24;;;;;;;;;;;7.30;99.90;;;;;;5045161;28;19952;-71
2022/11/22 13:20:54;;;;;;;;;;;7.30;99.90;;;;;;5045275;28;19921;-70
2022/11/22 13:23:39;;;;;;;;;;;7.30;99.90;;;;;;5044555;28;19988;-70
2022/11/22 13:26:08;;;;;;;;;;;7.30;99.90;;;;;;5023692;28;19989;-71
2022/11/22 13:28:37;;;;;;;;;;;7.30;99.90;;;;;;5025297;28;19993;-70
2022/11/22 13:31:13;;;;;;;;;;;7.40;99.90;;;;;;5024964;28;20284;-70
2022/11/22 13:33:41;;;;;;;;;;;7.50;99.90;;;;;;5025239;28;20162;-71
2022/11/22 13:36:22;;;;;;;;;;;7.40;99.90;;;;;;5024897;28;19928;-70
2022/11/22 13:38:50;;;;;;;;;;;7.40;99.90;;;;;;5024416;28;19960;-70
2022/11/22 13:41:24;;;;;;;;;;;7.40;99.90;;;;;;5024655;28;19985;-70
2022/11/22 13:43:54;;;;;;;;;;;7.50;99.90;;;;;;5024752;28;20264;-70
2022/11/22 13:46:39;;;;;;;;;;;7.50;99.90;;;;;;5024693;28;20072;-70
2022/11/22 13:49:08;;;;;;;;;;;7.50;99.90;;;;;;5024798;28;19992;-70
2022/11/22 13:51:49;;;;;;;;;;;7.50;99.90;;;;;;5024740;28;19921;-70
2022/11/22 13:54:34;;;;;;;;;;;7.50;99.90;;;;;;5021443;28;19956;-71
2022/11/22 13:57:01;;;;;;;;;;;7.50;99.90;;;;;;5024630;28;20018;-70
2022/11/22 13:59:29;;;;;;;;;;;7.50;99.90;;;;;;5024202;28;19921;-70
2022/11/22 14:01:57;;;;;;;;;;;7.50;99.90;;;;;;5024284;28;19957;-70
2022/11/22 14:04:30;;;;;;;;;;;7.50;99.90;;;;;;5024590;28;19985;-70
2022/11/22 14:07:00;;;;;;;;;;;7.50;99.90;;;;;;5024613;28;19921;-70
2022/11/22 14:09:30;;;;;;;;;;;7.50;99.90;;;;;;5024350;28;20277;-70
2022/11/22 14:12:03;;;;;;;;;;;7.50;99.90;;;;;;5024194;28;19961;-70
2022/11/22 14:14:35;;;;;;;;;;;7.50;99.90;;;;;;5024510;28;19964;-70
2022/11/22 14:17:06;;;;;;;;;;;7.40;99.90;;;;;;5026495;28;19989;-69
2022/11/22 14:19:36;;;;;;;;;;;7.40;99.90;;;;;;5044151;28;19951;-70
2022/11/22 14:22:10;;;;;;;;;;;7.30;99.90;;;;;;5042629;28;21002;-70
2022/11/22 14:24:52;;;;;;;;;;;7.20;99.90;;;;;;5043693;28;20016;-70
2022/11/22 14:27:25;;;;;;;;;;;7.20;99.90;;;;;;5044054;28;19960;-70
2022/11/22 14:30:01;;;;;;;;;;;7.20;99.90;;;;;;5043788;28;19921;-70
2022/11/22 14:32:39;;;;;;;;;;;7.10;99.90;;;;;;5044114;28;19921;-70
2022/11/22 14:35:17;;;;;;;;;;;7.10;99.90;;;;;;5043431;28;20259;-70
2022/11/22 14:37:45;;;;;;;;;;;7.00;99.90;;;;;;5043967;28;19984;-70
2022/11/22 14:40:16;;;;;;;;;;;7.10;99.90;;;;;;5043465;28;19988;-71
2022/11/22 14:42:47;;;;;;;;;;;7.10;99.90;;;;;;5043917;28;19971;-70
2022/11/22 14:45:20;;;;;;;;;;;7.00;99.90;;;;;;5043555;28;19995;-70
2022/11/22 14:47:53;;;;;;;;;;;7.00;99.90;;;;;;5043867;28;20228;-70
2022/11/22 14:50:25;;;;;;;;;;;7.00;99.90;;;;;;5042445;28;19963;-70